createdAt,value
2022-12-16T00:00:48.958Z,100074.78
2022-12-16T00:03:17.600Z,100084.47
2022-12-16T00:05:45.213Z,100078.56
2022-12-16T00:08:12.889Z,100072.88
2022-12-16T00:10:54.977Z,100075.94
2022-12-16T00:13:22.711Z,100078.69
2022-12-16T00:15:52.639Z,100074.41
2022-12-16T00:18:22.178Z,100069.34
2022-12-16T00:20:52.442Z,100066.00
2022-12-16T00:23:22.624Z,100065.31
2022-12-16T00:25:51.039Z,100061.06
2022-12-16T00:28:22.555Z,100063.41
2022-12-16T00:30:55.929Z,100060.47
2022-12-16T00:33:25.059Z,100067.00
2022-12-16T00:35:54.182Z,100076.00
2022-12-16T00:38:23.113Z,100074.59
2022-12-16T00:40:52.100Z,100077.91
2022-12-16T00:43:20.403Z,100067.00
2022-12-16T00:45:48.847Z,100073.75
2022-12-16T00:48:23.425Z,100071.47
2022-12-16T00:50:51.897Z,100080.16
2022-12-16T00:53:19.722Z,100074.13
2022-12-16T00:55:47.751Z,100074.09
2022-12-16T00:58:15.984Z,100077.81
2022-12-16T01:00:43.943Z,100081.09
2022-12-16T01:03:14.385Z,100076.63
2022-12-16T01:05:47.600Z,100073.16
2022-12-16T01:08:15.886Z,100074.66
2022-12-16T01:10:43.628Z,100075.84
2022-12-16T01:13:11.310Z,100071.47
2022-12-16T01:15:38.798Z,100071.34
2022-12-16T01:18:06.542Z,100071.53
2022-12-16T01:20:34.351Z,100084.19
2022-12-16T01:23:06.662Z,100084.63
2022-12-16T01:25:35.178Z,100081.75
2022-12-16T01:28:04.092Z,100090.47
2022-12-16T01:30:32.221Z,100088.97
2022-12-16T01:32:59.956Z,100088.13
2022-12-16T01:35:52.607Z,100096.69
2022-12-16T01:38:18.356Z,100097.50
2022-12-16T01:40:46.145Z,100088.97
2022-12-16T01:43:14.776Z,100101.69
2022-12-16T01:45:43.713Z,100099.34
2022-12-16T01:48:20.418Z,100094.00
2022-12-16T01:50:49.792Z,100097.84
2022-12-16T01:53:18.830Z,100101.44
2022-12-16T01:55:50.133Z,100100.44
2022-12-16T01:58:22.335Z,100104.16
2022-12-16T02:00:50.257Z,100101.22
2022-12-16T02:03:19.379Z,100112.69
2022-12-16T02:05:47.706Z,100106.94
2022-12-16T02:08:18.529Z,100104.44
2022-12-16T02:11:01.688Z,100108.03
2022-12-16T02:13:35.442Z,100103.22
2022-12-16T02:16:11.679Z,100109.13
2022-12-16T02:18:46.547Z,100108.56
2022-12-16T02:21:39.928Z,100110.22
2022-12-16T02:24:31.115Z,100109.97
2022-12-16T02:27:28.160Z,100111.91
2022-12-16T02:30:06.860Z,100110.66
2022-12-16T02:32:48.824Z,100114.09
2022-12-16T02:35:24.053Z,100111.59
2022-12-16T02:37:58.039Z,100113.00
2022-12-16T02:40:29.945Z,100105.41
2022-12-16T02:43:01.919Z,100111.59
2022-12-16T02:45:31.220Z,100116.72
2022-12-16T02:48:00.112Z,100119.34
2022-12-16T02:50:30.759Z,100124.28
2022-12-16T02:53:00.678Z,100122.78
2022-12-16T02:55:34.120Z,100122.22
2022-12-16T02:58:12.446Z,100116.31
2022-12-16T03:00:44.802Z,100119.06
2022-12-16T03:03:23.316Z,100128.97
2022-12-16T03:05:52.578Z,100130.66
2022-12-16T03:08:23.405Z,100137.25
2022-12-16T03:10:53.481Z,100144.66
2022-12-16T03:13:24.064Z,100141.59
2022-12-16T03:15:54.454Z,100146.81
2022-12-16T03:18:26.101Z,100158.13
2022-12-16T03:20:56.589Z,100155.75
2022-12-16T03:23:27.901Z,100146.00
2022-12-16T03:26:01.139Z,100137.34
2022-12-16T03:28:41.521Z,100139.81
2022-12-16T03:31:14.746Z,100140.63
2022-12-16T03:33:49.327Z,100144.78
2022-12-16T03:36:21.206Z,100148.22
2022-12-16T03:38:49.193Z,100148.00
2022-12-16T03:41:17.459Z,100152.03
2022-12-16T03:43:45.064Z,100151.72
2022-12-16T03:46:13.240Z,100147.59
2022-12-16T03:48:48.421Z,100161.09
2022-12-16T03:51:16.433Z,100163.16
2022-12-16T03:53:44.337Z,100169.97
2022-12-16T03:56:12.703Z,100163.13
2022-12-16T03:58:41.078Z,100167.13
2022-12-16T04:01:10.384Z,100164.97
2022-12-16T04:03:38.687Z,100161.69
2022-12-16T04:06:08.914Z,100166.19
2022-12-16T04:08:36.418Z,100165.19
2022-12-16T04:11:21.794Z,100164.38
2022-12-16T04:14:07.308Z,100162.50
2022-12-16T04:16:52.904Z,100165.56
2022-12-16T04:19:42.086Z,100168.03
2022-12-16T04:22:32.443Z,100169.00
2022-12-16T04:25:03.009Z,100176.44
2022-12-16T04:27:31.715Z,100180.72
2022-12-16T04:30:16.990Z,100180.72
2022-12-16T04:33:02.573Z,100175.25
2022-12-16T04:35:47.534Z,100180.72
2022-12-16T04:38:34.065Z,100184.63
2022-12-16T04:41:19.044Z,100188.66
2022-12-16T04:44:05.252Z,100191.84
2022-12-16T04:46:50.990Z,100192.50
2022-12-16T04:49:36.978Z,100197.31
2022-12-16T04:52:22.772Z,100197.47
2022-12-16T04:55:09.266Z,100206.25
2022-12-16T04:57:54.594Z,100205.03
2022-12-16T05:00:40.005Z,100206.25
2022-12-16T05:03:26.340Z,100203.47
2022-12-16T05:06:11.777Z,100208.06
2022-12-16T05:09:00.169Z,100215.53
2022-12-16T05:11:46.860Z,100213.56
2022-12-16T05:14:32.581Z,100216.03
2022-12-16T05:17:17.942Z,100217.66
2022-12-16T05:20:03.175Z,100223.16
2022-12-16T05:22:48.535Z,100219.47
2022-12-16T05:25:33.827Z,100221.31
2022-12-16T05:28:20.488Z,100222.94
2022-12-16T05:31:05.476Z,100222.78
2022-12-16T05:33:50.940Z,100227.66
2022-12-16T05:36:36.075Z,100226.50
2022-12-16T05:39:21.454Z,100234.91
2022-12-16T05:42:06.540Z,100229.34
2022-12-16T05:44:52.927Z,100232.44
2022-12-16T05:47:38.092Z,100236.50
2022-12-16T05:50:24.543Z,100242.56
2022-12-16T05:53:24.814Z,100242.88
2022-12-16T05:56:15.716Z,100243.34
2022-12-16T05:59:01.112Z,100256.84
2022-12-16T06:01:48.134Z,100258.75
2022-12-16T06:04:35.705Z,100254.88
2022-12-16T06:07:21.635Z,100253.75
2022-12-16T06:10:06.815Z,100257.38
2022-12-16T06:12:52.383Z,100265.66
2022-12-16T06:15:37.439Z,100259.25
2022-12-16T06:18:25.276Z,100262.91
2022-12-16T06:21:10.908Z,100267.91
2022-12-16T06:23:55.862Z,100270.63
2022-12-16T06:26:41.361Z,100268.25
2022-12-16T06:29:27.718Z,100273.59
2022-12-16T06:32:13.571Z,100283.03
2022-12-16T06:35:00.154Z,100285.78
2022-12-16T06:37:45.453Z,100289.16
2022-12-16T06:40:30.746Z,100292.41
2022-12-16T06:43:16.516Z,100294.94
2022-12-16T06:46:01.511Z,100297.41
2022-12-16T06:48:52.352Z,100305.56
2022-12-16T06:51:39.030Z,100313.31
2022-12-16T06:54:24.152Z,100322.66
2022-12-16T06:57:09.314Z,100330.97
2022-12-16T06:59:55.686Z,100331.97
2022-12-16T07:02:41.360Z,100327.75
2022-12-16T07:05:28.393Z,100328.31
2022-12-16T07:08:18.412Z,100331.06
2022-12-16T07:11:16.117Z,100334.72
2022-12-16T07:14:02.472Z,100337.66
2022-12-16T07:16:47.962Z,100342.06
2022-12-16T07:19:33.339Z,100348.59
2022-12-16T07:22:20.062Z,100347.28
2022-12-16T07:25:06.080Z,100352.97
2022-12-16T07:27:51.666Z,100362.00
2022-12-16T07:30:37.452Z,100363.19
2022-12-16T07:33:22.842Z,100371.03
2022-12-16T07:36:09.042Z,100371.88
2022-12-16T07:38:54.754Z,100385.63
2022-12-16T07:41:41.481Z,100388.09
2022-12-16T07:44:26.950Z,100397.22
2022-12-16T07:47:12.138Z,100396.66
2022-12-16T07:49:57.534Z,100406.97
2022-12-16T07:52:43.248Z,100410.50
2022-12-16T07:55:29.795Z,100411.81
2022-12-16T07:58:16.811Z,100419.94
2022-12-16T08:01:07.669Z,100412.41
2022-12-16T08:03:54.224Z,100418.25
2022-12-16T08:06:40.549Z,100424.56
2022-12-16T08:09:25.685Z,100430.38
2022-12-16T08:12:11.635Z,100433.00
2022-12-16T08:14:58.665Z,100438.75
2022-12-16T08:17:43.799Z,100441.47
2022-12-16T08:20:29.484Z,100443.94
2022-12-16T08:23:14.621Z,100444.59
2022-12-16T08:26:00.390Z,100446.03
2022-12-16T08:28:45.803Z,100449.81
2022-12-16T08:31:33.289Z,100453.31
2022-12-16T08:34:27.333Z,100448.09
2022-12-16T08:37:12.866Z,100448.31
2022-12-16T08:40:25.750Z,100464.66
2022-12-16T08:43:07.857Z,100471.50
2022-12-16T08:45:57.053Z,100472.84
2022-12-16T08:48:43.650Z,100478.69
2022-12-16T08:51:29.479Z,100486.06
2022-12-16T08:54:15.582Z,100484.78
2022-12-16T08:57:01.268Z,100495.25
2022-12-16T08:59:47.446Z,100499.09
2022-12-16T09:02:33.142Z,100496.66
2022-12-16T09:05:19.891Z,100494.38
2022-12-16T09:08:05.783Z,100503.25
2022-12-16T09:10:50.926Z,100502.22
2022-12-16T09:13:36.720Z,100511.25
2022-12-16T09:16:22.177Z,100519.28
2022-12-16T09:19:07.694Z,100532.03
2022-12-16T09:21:59.290Z,100525.09
2022-12-16T09:24:44.700Z,100534.75
2022-12-16T09:27:30.387Z,100532.75
2022-12-16T09:30:15.886Z,100530.31
2022-12-16T09:33:02.267Z,100543.13
2022-12-16T09:35:49.115Z,100538.94
2022-12-16T09:38:35.633Z,100538.75
2022-12-16T09:41:43.014Z,100539.25
2022-12-16T09:44:47.275Z,100552.31
2022-12-16T09:47:38.839Z,100557.03
2022-12-16T09:50:24.767Z,100562.94
2022-12-16T09:53:26.266Z,100560.28
2022-12-16T09:56:12.994Z,100566.78
2022-12-16T09:59:02.323Z,100572.47
2022-12-16T10:01:49.265Z,100576.22
2022-12-16T10:04:35.817Z,100578.59
2022-12-16T10:07:21.490Z,100575.25
2022-12-16T10:10:16.596Z,100578.50
2022-12-16T10:13:08.432Z,100582.41
2022-12-16T10:16:00.050Z,100583.09
2022-12-16T10:18:57.933Z,100582.66
2022-12-16T10:21:46.950Z,100592.13
2022-12-16T10:24:39.513Z,100589.78
2022-12-16T10:27:30.273Z,100587.16
2022-12-16T10:30:17.170Z,100582.78
2022-12-16T10:33:05.363Z,100580.41
2022-12-16T10:35:55.649Z,100592.03
2022-12-16T10:38:44.072Z,100593.72
2022-12-16T10:41:30.677Z,100590.34
2022-12-16T10:44:16.169Z,100590.91
2022-12-16T10:47:02.732Z,100585.34
2022-12-16T10:49:53.650Z,100584.28
2022-12-16T10:52:41.621Z,100593.13
2022-12-16T10:55:38.683Z,100596.84
2022-12-16T10:58:35.863Z,100595.91
2022-12-16T11:01:40.086Z,100593.19
2022-12-16T11:04:47.785Z,100591.50
2022-12-16T11:07:45.459Z,100588.88
2022-12-16T11:10:52.047Z,100593.19
2022-12-16T11:13:41.842Z,100592.31
2022-12-16T11:16:33.447Z,100589.84
2022-12-16T11:19:19.259Z,100597.28
2022-12-16T11:22:05.953Z,100596.53
2022-12-16T11:24:51.311Z,100594.19
2022-12-16T11:27:42.156Z,100587.97
2022-12-16T11:30:39.252Z,100590.63
2022-12-16T11:33:31.213Z,100601.97
2022-12-16T11:36:24.693Z,100599.34
2022-12-16T11:39:11.875Z,100596.03
2022-12-16T11:42:13.270Z,100600.44
2022-12-16T11:45:01.800Z,100595.47
2022-12-16T11:47:54.218Z,100594.25
2022-12-16T11:50:41.976Z,100596.06
2022-12-16T11:53:41.197Z,100601.03
2022-12-16T11:56:31.393Z,100598.84
2022-12-16T11:59:20.619Z,100599.41
2022-12-16T12:02:10.459Z,100611.84
2022-12-16T12:04:55.779Z,100619.19
2022-12-16T12:07:48.924Z,100611.56
2022-12-16T12:10:47.421Z,100621.00
2022-12-16T12:13:46.907Z,100618.50
2022-12-16T12:16:47.759Z,100618.50
2022-12-16T12:19:42.219Z,100614.06
2022-12-16T12:22:31.679Z,100624.44
2022-12-16T12:25:21.101Z,100631.09
2022-12-16T12:28:15.013Z,100621.41
2022-12-16T12:31:05.951Z,100624.56
2022-12-16T12:34:10.058Z,100623.38
2022-12-16T12:36:57.698Z,100625.47
2022-12-16T12:39:48.107Z,100623.72
2022-12-16T12:42:48.760Z,100633.09
2022-12-16T12:45:46.833Z,100627.50
2022-12-16T12:48:37.705Z,100628.53
2022-12-16T12:51:27.206Z,100639.81
2022-12-16T12:54:17.427Z,100638.47
2022-12-16T12:57:06.575Z,100643.69
2022-12-16T13:00:02.848Z,100632.13
2022-12-16T13:02:58.125Z,100638.25
2022-12-16T13:05:47.571Z,100642.44
2022-12-16T13:08:57.101Z,100643.81
2022-12-16T13:11:42.812Z,100646.88
2022-12-16T13:15:03.126Z,100647.91
2022-12-16T13:17:48.451Z,100650.50
2022-12-16T13:20:55.508Z,100654.91
2022-12-16T13:23:47.906Z,100655.19
2022-12-16T13:26:34.927Z,100653.91
2022-12-16T13:29:26.830Z,100652.75
2022-12-16T13:32:19.072Z,100661.03
2022-12-16T13:35:04.196Z,100664.94
2022-12-16T13:37:51.300Z,100668.75
2022-12-16T13:40:39.211Z,100673.50
2022-12-16T13:43:24.716Z,100671.16
2022-12-16T13:46:47.416Z,100674.00
2022-12-16T13:49:59.801Z,100671.09
2022-12-16T13:52:56.434Z,100677.28
2022-12-16T13:55:46.897Z,100686.88
2022-12-16T13:58:39.293Z,100679.72
2022-12-16T14:01:29.389Z,100675.03
2022-12-16T14:04:23.484Z,100690.84
2022-12-16T14:07:12.264Z,100687.19
2022-12-16T14:10:06.006Z,100695.03
2022-12-16T14:13:07.782Z,100707.53
2022-12-16T14:16:06.021Z,100711.88
2022-12-16T14:19:03.142Z,100720.47
2022-12-16T14:21:56.324Z,100733.38
2022-12-16T14:24:47.723Z,100763.59
2022-12-16T14:27:41.332Z,100777.38
2022-12-16T14:30:35.869Z,100779.94
2022-12-16T14:33:41.127Z,100780.34
2022-12-16T14:36:41.034Z,100775.34
2022-12-16T14:39:31.425Z,100777.88
2022-12-16T14:42:16.935Z,100792.28
2022-12-16T14:45:06.141Z,100785.16
2022-12-16T14:47:51.708Z,100783.78
2022-12-16T14:50:40.177Z,100781.00
2022-12-16T14:53:32.587Z,100787.19
2022-12-16T14:56:35.466Z,100778.28
2022-12-16T14:59:36.099Z,100778.34
2022-12-16T15:02:32.923Z,100780.81
2022-12-16T15:05:19.017Z,100778.41
2022-12-16T15:08:04.447Z,100775.72
2022-12-16T15:10:50.237Z,100783.56
2022-12-16T15:14:19.399Z,100786.13
2022-12-16T15:17:06.544Z,100787.06
2022-12-16T15:20:03.157Z,100788.94
2022-12-16T15:22:48.565Z,100792.94
2022-12-16T15:25:41.043Z,100797.53
2022-12-16T15:28:53.415Z,100804.84
2022-12-16T15:31:42.734Z,100811.75
2022-12-16T15:34:55.956Z,100815.22
2022-12-16T15:37:44.143Z,100812.22
2022-12-16T15:40:44.502Z,100814.16
2022-12-16T15:43:40.903Z,100823.50
2022-12-16T15:46:35.150Z,100817.91
2022-12-16T15:49:20.514Z,100815.53
2022-12-16T15:52:08.720Z,100819.94
2022-12-16T15:55:05.299Z,100835.66
2022-12-16T15:57:52.194Z,100824.34
2022-12-16T16:00:41.276Z,100825.44
2022-12-16T16:03:37.247Z,100829.00
2022-12-16T16:06:23.293Z,100832.31
2022-12-16T16:09:13.076Z,100828.28
2022-12-16T16:11:54.589Z,100842.50
2022-12-16T16:14:40.485Z,100851.09
2022-12-16T16:17:34.899Z,100854.53
2022-12-16T16:20:20.659Z,100856.56
2022-12-16T16:23:05.845Z,100864.63
2022-12-16T16:25:57.996Z,100873.50
2022-12-16T16:28:45.967Z,100872.19
2022-12-16T16:31:31.575Z,100872.69
2022-12-16T16:34:16.493Z,100868.47
2022-12-16T16:37:01.802Z,100871.22
2022-12-16T16:39:58.404Z,100881.22
2022-12-16T16:42:45.292Z,100880.50
2022-12-16T16:45:30.485Z,100883.06
2022-12-16T16:48:23.271Z,100888.53
2022-12-16T16:51:08.708Z,100890.81
2022-12-16T16:53:54.350Z,100890.69
2022-12-16T16:56:40.483Z,100898.75
2022-12-16T16:59:28.114Z,100906.56
2022-12-16T17:02:13.489Z,100896.78
2022-12-16T17:04:58.477Z,100909.31
2022-12-16T17:07:43.963Z,100910.88
2022-12-16T17:10:29.974Z,100914.78
2022-12-16T17:13:15.024Z,100916.50
2022-12-16T17:16:03.564Z,100923.63
2022-12-16T17:18:52.338Z,100925.75
2022-12-16T17:21:38.083Z,100936.75
2022-12-16T17:24:23.752Z,100935.38
2022-12-16T17:27:09.604Z,100945.41
2022-12-16T17:29:54.577Z,100948.22
2022-12-16T17:32:41.201Z,100949.75
2022-12-16T17:35:29.245Z,100956.47
2022-12-16T17:38:14.301Z,100950.34
2022-12-16T17:41:01.858Z,100955.81
2022-12-16T17:43:47.005Z,100968.16
2022-12-16T17:46:32.399Z,100970.69
2022-12-16T17:49:18.622Z,100967.97
2022-12-16T17:52:03.968Z,100970.69
2022-12-16T17:54:49.428Z,100973.19
2022-12-16T17:57:34.698Z,100973.19
2022-12-16T18:00:21.116Z,100984.88
2022-12-16T18:03:06.287Z,100982.78
2022-12-16T18:05:53.047Z,100983.75
2022-12-16T18:08:38.379Z,100979.25
2022-12-16T18:11:23.838Z,100990.94
2022-12-16T18:14:08.943Z,100990.34
2022-12-16T18:16:54.192Z,100993.66
2022-12-16T18:19:39.589Z,100996.78
2022-12-16T18:22:27.229Z,101003.03
2022-12-16T18:25:12.144Z,101001.16
2022-12-16T18:27:58.052Z,101011.38
2022-12-16T18:30:43.370Z,101010.94
2022-12-16T18:33:37.397Z,101011.16
2022-12-16T18:36:23.328Z,101020.59
2022-12-16T18:39:09.704Z,101020.06
2022-12-16T18:42:00.389Z,101015.34
2022-12-16T18:44:45.625Z,101017.38
2022-12-16T18:47:30.034Z,101025.56
2022-12-16T18:50:15.314Z,101021.59
2022-12-16T18:53:01.130Z,101029.22
2022-12-16T18:55:47.951Z,101027.25
2022-12-16T18:58:50.675Z,101033.94
2022-12-16T19:01:36.345Z,101027.28
2022-12-16T19:04:21.658Z,101032.25
2022-12-16T19:07:06.888Z,101041.81
2022-12-16T19:09:52.870Z,101043.78
2022-12-16T19:12:39.644Z,101045.59
2022-12-16T19:15:25.234Z,101041.28
2022-12-16T19:18:11.316Z,101047.88
2022-12-16T19:21:08.378Z,101056.59
2022-12-16T19:23:54.944Z,101052.34
2022-12-16T19:26:40.492Z,101068.91
2022-12-16T19:29:27.189Z,101064.06
2022-12-16T19:32:12.869Z,101059.63
2022-12-16T19:34:57.922Z,101062.72
2022-12-16T19:37:43.351Z,101053.13
2022-12-16T19:40:29.108Z,101072.88
2022-12-16T19:43:14.582Z,101066.81
2022-12-16T19:46:01.756Z,101076.97
2022-12-16T19:48:47.068Z,101063.63
2022-12-16T19:51:32.422Z,101070.81
2022-12-16T19:54:17.935Z,101079.19
2022-12-16T19:57:02.930Z,101081.91
2022-12-16T19:59:49.051Z,101085.13
2022-12-16T20:02:47.093Z,101088.06
2022-12-16T20:05:32.546Z,101089.38
2022-12-16T20:08:26.193Z,101093.88
2022-12-16T20:11:11.598Z,101090.13
2022-12-16T20:13:56.788Z,101095.16
2022-12-16T20:16:42.029Z,101100.19
2022-12-16T20:19:28.597Z,101098.59
2022-12-16T20:22:16.424Z,101094.91
2022-12-16T20:25:13.395Z,101106.13
2022-12-16T20:27:58.697Z,101106.03
2022-12-16T20:30:43.993Z,101100.19
2022-12-16T20:33:31.312Z,101104.91
2022-12-16T20:36:18.744Z,101102.06
2022-12-16T20:39:05.130Z,101106.88
2022-12-16T20:41:51.810Z,101107.97
2022-12-16T20:44:37.242Z,101115.91
2022-12-16T20:47:22.817Z,101117.78
2022-12-16T20:50:08.083Z,101125.38
2022-12-16T20:52:56.044Z,101126.97
2022-12-16T20:55:42.586Z,101135.16
2022-12-16T20:58:27.713Z,101128.84
2022-12-16T21:01:14.176Z,101125.88
2022-12-16T21:03:59.172Z,101136.47
2022-12-16T21:06:44.485Z,101136.75
2022-12-16T21:09:31.161Z,101140.63
2022-12-16T21:12:16.467Z,101142.91
2022-12-16T21:15:01.678Z,101145.13
2022-12-16T21:17:46.930Z,101146.03
2022-12-16T21:20:43.676Z,101153.22
2022-12-16T21:23:28.840Z,101150.13
2022-12-16T21:26:17.533Z,101149.47
2022-12-16T21:29:02.771Z,101166.69
2022-12-16T21:31:56.469Z,101172.41
2022-12-16T21:34:42.129Z,101170.94
2022-12-16T21:37:27.472Z,101180.91
2022-12-16T21:40:24.223Z,101184.94
2022-12-16T21:43:11.232Z,101190.88
2022-12-16T21:45:56.487Z,101186.59
2022-12-16T21:48:42.021Z,101190.94
2022-12-16T21:51:27.179Z,101192.81
2022-12-16T21:54:12.505Z,101197.38
2022-12-16T21:56:57.826Z,101195.00
2022-12-16T21:59:44.684Z,101197.81
2022-12-16T22:02:30.781Z,101194.66
2022-12-16T22:05:16.140Z,101204.06
2022-12-16T22:08:01.754Z,101203.94
2022-12-16T22:10:47.035Z,101213.88
2022-12-16T22:13:32.233Z,101216.28
2022-12-16T22:16:18.927Z,101212.34
2022-12-16T22:19:03.913Z,101223.75
2022-12-16T22:21:49.338Z,101228.81
2022-12-16T22:24:49.007Z,101232.16
2022-12-16T22:27:34.496Z,101235.50
2022-12-16T22:30:19.796Z,101242.91
2022-12-16T22:33:06.586Z,101243.44
2022-12-16T22:35:52.407Z,101238.69
2022-12-16T22:38:37.733Z,101241.59
2022-12-16T22:41:25.282Z,101244.78
2022-12-16T22:44:19.089Z,101248.91
2022-12-16T22:47:04.365Z,101247.53
2022-12-16T22:49:51.754Z,101254.44
2022-12-16T22:52:37.094Z,101259.75
2022-12-16T22:55:22.649Z,101253.34
2022-12-16T22:58:07.893Z,101260.38
2022-12-16T23:00:53.284Z,101259.25
2022-12-16T23:03:41.942Z,101267.41
2022-12-16T23:06:30.669Z,101268.16
2022-12-16T23:09:18.174Z,101268.72
2022-12-16T23:12:03.658Z,101265.66
2022-12-16T23:14:49.093Z,101269.94
2022-12-16T23:17:35.168Z,101274.53
2022-12-16T23:20:20.385Z,101271.69
2022-12-16T23:23:06.792Z,101273.44
2022-12-16T23:25:52.316Z,101273.84
2022-12-16T23:28:38.599Z,101273.84
2022-12-16T23:31:23.824Z,101278.84
2022-12-16T23:34:09.268Z,101281.44
2022-12-16T23:36:55.657Z,101288.75
2022-12-16T23:39:51.095Z,101286.88
2022-12-16T23:42:48.487Z,101290.78
2022-12-16T23:45:33.664Z,101291.53
2022-12-16T23:48:19.898Z,101294.13
2022-12-16T23:51:05.474Z,101291.41
2022-12-16T23:53:50.642Z,101295.25
2022-12-16T23:56:37.024Z,101297.69
2022-12-16T23:59:23.080Z,101295.53
